Time,TemperatureF,DewpointF,PressureIn,WindDirection,WindDirectionDegrees,WindSpeedMPH,WindSpeedGustMPH,Humidity,HourlyPrecipIn,Conditions,Clouds,dailyrainin,SolarRadiationWatts/m^2,SoftwareType,DateUTC
2014-01-10 00:11:00,30.0,30.0,-100.00,WSW,258,4.0,7.0,100,-99.99,,,0.02,0.000000,,2014-01-10 08:11:00,
2014-01-10 00:21:00,30.0,30.0,-100.00,WSW,258,4.0,7.0,100,-99.99,,,0.02,0.000000,,2014-01-10 08:21:00,
2014-01-10 00:30:00,30.0,30.0,-100.00,WNW,300,3.0,5.0,100,0.00,,,0.02,0.000000,,2014-01-10 08:30:00,
2014-01-10 00:53:00,30.0,30.0,-100.00,WNW,300,3.0,5.0,100,0.00,,,0.02,0.000000,,2014-01-10 08:53:00,
2014-01-10 01:02:00,30.0,30.0,-100.00,WNW,300,3.0,5.0,100,0.00,,,0.02,0.000000,,2014-01-10 09:02:00,
2014-01-10 01:11:00,30.0,30.0,-100.00,WNW,300,3.0,5.0,100,0.00,,,0.02,0.000000,,2014-01-10 09:11:00,
2014-01-10 01:21:00,30.0,30.0,-100.00,WNW,300,3.0,5.0,100,0.00,,,0.02,0.000000,,2014-01-10 09:21:00,
2014-01-10 01:30:00,33.0,33.0,-100.00,SSE,156,4.0,12.0,99,0.00,,,0.02,0.000000,,2014-01-10 09:30:00,
2014-01-10 01:53:00,33.0,33.0,-100.00,SSE,156,4.0,12.0,99,0.00,,,0.02,0.000000,,2014-01-10 09:53:00,
2014-01-10 02:03:00,33.0,33.0,-100.00,SSE,156,4.0,12.0,99,0.00,,,0.02,0.000000,,2014-01-10 10:03:00,
2014-01-10 02:13:00,33.0,33.0,-100.00,SSE,156,4.0,12.0,99,0.00,,,0.02,0.000000,,2014-01-10 10:13:00,
2014-01-10 02:23:00,33.0,33.0,-100.00,SSE,156,4.0,12.0,99,0.00,,,0.02,0.000000,,2014-01-10 10:23:00,
2014-01-10 02:30:00,32.0,31.0,-100.00,NW,322,3.0,13.0,96,-99.99,,,0.02,0.000000,,2014-01-10 10:30:00,
2014-01-10 03:11:00,32.0,31.0,-100.00,NW,322,3.0,13.0,96,-99.99,,,0.02,0.000000,,2014-01-10 11:11:00,
2014-01-10 03:22:00,32.0,31.0,-100.00,NW,322,3.0,13.0,96,-99.99,,,0.02,0.000000,,2014-01-10 11:22:00,
2014-01-10 03:30:00,37.0,34.0,-100.00,West,264,5.0,11.0,90,-99.99,,,0.02,0.000000,,2014-01-10 11:30:00,
2014-01-10 03:54:00,37.0,34.0,-100.00,West,264,5.0,11.0,90,-99.99,,,0.02,0.000000,,2014-01-10 11:54:00,
2014-01-10 04:02:00,37.0,34.0,-100.00,West,264,5.0,11.0,90,-99.99,,,0.02,0.000000,,2014-01-10 12:02:00,
2014-01-10 04:11:00,37.0,34.0,-100.00,West,264,5.0,11.0,90,-99.99,,,0.02,0.000000,,2014-01-10 12:11:00,
2014-01-10 04:21:00,37.0,34.0,-100.00,West,264,5.0,11.0,90,-99.99,,,0.02,0.000000,,2014-01-10 12:21:00,
2014-01-10 06:30:00,35.0,30.0,-100.00,NW,306,2.0,10.0,81,-99.99,,,0.02,0.000000,,2014-01-10 14:30:00,
2014-01-10 07:11:00,35.0,30.0,-100.00,NW,306,2.0,10.0,81,-99.99,,,0.02,0.000000,,2014-01-10 15:11:00,
2014-01-10 07:21:00,35.0,30.0,-100.00,NW,306,2.0,10.0,81,-99.99,,,0.02,0.000000,,2014-01-10 15:21:00,
2014-01-10 07:30:00,46.0,32.0,-100.00,NNW,334,3.0,14.0,59,0.00,,,0.02,0.000000,,2014-01-10 15:30:00,
2014-01-10 07:53:00,46.0,32.0,-100.00,NNW,334,3.0,14.0,59,0.00,,,0.02,0.000000,,2014-01-10 15:53:00,
2014-01-10 08:03:00,46.0,32.0,-100.00,NNW,334,3.0,14.0,59,0.00,,,0.02,0.000000,,2014-01-10 16:03:00,
2014-01-10 08:13:00,46.0,32.0,-100.00,NNW,334,3.0,14.0,59,0.00,,,0.02,0.000000,,2014-01-10 16:13:00,
2014-01-10 08:23:00,46.0,32.0,-100.00,NNW,334,3.0,14.0,59,0.00,,,0.02,0.000000,,2014-01-10 16:23:00,
2014-01-10 08:30:00,39.0,31.0,-100.00,South,185,4.0,13.0,72,0.00,,,0.02,17.000000,,2014-01-10 16:30:00,
2014-01-10 08:52:00,39.0,31.0,-100.00,South,185,4.0,13.0,72,0.00,,,0.02,17.000000,,2014-01-10 16:52:00,
2014-01-10 09:02:00,39.0,31.0,-100.00,South,185,4.0,13.0,72,0.00,,,0.02,17.000000,,2014-01-10 17:02:00,
2014-01-10 09:12:00,39.0,31.0,-100.00,South,185,4.0,13.0,72,0.00,,,0.02,17.000000,,2014-01-10 17:12:00,
2014-01-10 09:22:00,39.0,31.0,-100.00,South,185,4.0,13.0,72,0.00,,,0.02,17.000000,,2014-01-10 17:22:00,
2014-01-10 09:30:00,41.0,34.0,-100.00,East,100,4.0,8.0,76,0.00,,,0.01,95.000000,,2014-01-10 17:30:00,
2014-01-10 09:53:00,41.0,34.0,-100.00,East,100,4.0,8.0,76,0.00,,,0.01,95.000000,,2014-01-10 17:53:00,
2014-01-10 10:01:00,41.0,34.0,-100.00,East,100,4.0,8.0,76,0.00,,,0.01,95.000000,,2014-01-10 18:01:00,
2014-01-10 10:11:00,41.0,34.0,-100.00,East,100,4.0,8.0,76,0.00,,,0.01,95.000000,,2014-01-10 18:11:00,
2014-01-10 10:21:00,41.0,34.0,-100.00,East,100,4.0,8.0,76,0.00,,,0.01,95.000000,,2014-01-10 18:21:00,
2014-01-10 10:30:00,45.0,35.0,-100.00,ENE,73,3.0,10.0,68,0.00,,,0.00,257.000000,,2014-01-10 18:30:00,
2014-01-10 10:52:00,45.0,35.0,-100.00,ENE,73,3.0,10.0,68,0.00,,,0.00,257.000000,,2014-01-10 18:52:00,
2014-01-10 11:02:00,45.0,35.0,-100.00,ENE,73,3.0,10.0,68,0.00,,,0.00,257.000000,,2014-01-10 19:02:00,
2014-01-10 11:12:00,45.0,35.0,-100.00,ENE,73,3.0,10.0,68,0.00,,,0.00,257.000000,,2014-01-10 19:12:00,
2014-01-10 11:21:00,45.0,35.0,-100.00,ENE,73,3.0,10.0,68,0.00,,,0.00,257.000000,,2014-01-10 19:21:00,
2014-01-10 11:30:00,50.0,35.0,-100.00,NNE,32,2.0,7.0,57,0.00,,,0.00,387.000000,,2014-01-10 19:30:00,
2014-01-10 11:52:00,50.0,35.0,-100.00,NNE,32,2.0,7.0,57,0.00,,,0.00,387.000000,,2014-01-10 19:52:00,
2014-01-10 12:01:00,50.0,35.0,-100.00,NNE,32,2.0,7.0,57,0.00,,,0.00,387.000000,,2014-01-10 20:01:00,
2014-01-10 12:11:00,50.0,35.0,-100.00,NNE,32,2.0,7.0,57,0.00,,,0.00,387.000000,,2014-01-10 20:11:00,
2014-01-10 12:22:00,50.0,35.0,-100.00,NNE,32,2.0,7.0,57,0.00,,,0.00,387.000000,,2014-01-10 20:22:00,
2014-01-10 12:30:00,53.0,36.0,-100.00,North,359,3.0,5.0,52,0.00,,,0.00,409.000000,,2014-01-10 20:30:00,
2014-01-10 12:52:00,53.0,36.0,-100.00,North,359,3.0,5.0,52,0.00,,,0.00,409.000000,,2014-01-10 20:52:00,
2014-01-10 13:03:00,53.0,36.0,-100.00,North,359,3.0,5.0,52,0.00,,,0.00,409.000000,,2014-01-10 21:03:00,
2014-01-10 13:12:00,53.0,36.0,-100.00,North,359,3.0,5.0,52,0.00,,,0.00,409.000000,,2014-01-10 21:12:00,
2014-01-10 13:21:00,53.0,36.0,-100.00,North,359,3.0,5.0,52,0.00,,,0.00,409.000000,,2014-01-10 21:21:00,
2014-01-10 13:30:00,51.0,37.0,-100.00,North,-999,0.0,6.0,58,0.00,,,0.00,186.000000,,2014-01-10 21:30:00,
2014-01-10 13:53:00,51.0,37.0,-100.00,North,-999,0.0,6.0,58,0.00,,,0.00,186.000000,,2014-01-10 21:53:00,
2014-01-10 14:03:00,51.0,37.0,-100.00,North,-999,0.0,6.0,58,0.00,,,0.00,186.000000,,2014-01-10 22:03:00,
2014-01-10 14:12:00,51.0,37.0,-100.00,North,-999,0.0,6.0,58,0.00,,,0.00,186.000000,,2014-01-10 22:12:00,
2014-01-10 14:22:00,51.0,37.0,-100.00,North,-999,0.0,6.0,58,0.00,,,0.00,186.000000,,2014-01-10 22:22:00,
2014-01-10 14:30:00,53.0,34.0,-100.00,WNW,291,4.0,6.0,48,0.00,,,0.00,137.000000,,2014-01-10 22:30:00,
2014-01-10 14:53:00,53.0,34.0,-100.00,WNW,291,4.0,6.0,48,0.00,,,0.00,137.000000,,2014-01-10 22:53:00,
2014-01-10 15:02:00,53.0,34.0,-100.00,WNW,291,4.0,6.0,48,0.00,,,0.00,137.000000,,2014-01-10 23:02:00,
2014-01-10 15:12:00,53.0,34.0,-100.00,WNW,291,4.0,6.0,48,0.00,,,0.00,137.000000,,2014-01-10 23:12:00,
2014-01-10 15:22:00,53.0,34.0,-100.00,WNW,291,4.0,6.0,48,0.00,,,0.00,137.000000,,2014-01-10 23:22:00,
2014-01-10 15:30:00,53.0,35.0,-100.00,SW,229,11.0,16.0,50,0.00,,,0.00,95.000000,,2014-01-10 23:30:00,
2014-01-10 15:52:00,53.0,35.0,-100.00,SW,229,11.0,16.0,50,0.00,,,0.00,95.000000,,2014-01-10 23:52:00,
2014-01-10 16:02:00,53.0,35.0,-100.00,SW,229,11.0,16.0,50,0.00,,,0.00,95.000000,,2014-01-11 00:02:00,
2014-01-10 16:12:00,53.0,35.0,-100.00,SW,229,11.0,16.0,50,0.00,,,0.00,95.000000,,2014-01-11 00:12:00,
2014-01-10 16:21:00,53.0,35.0,-100.00,SW,229,11.0,16.0,50,0.00,,,0.00,95.000000,,2014-01-11 00:21:00,
2014-01-10 16:30:00,49.0,35.0,-100.00,WSW,240,6.0,15.0,59,0.00,,,0.00,30.000000,,2014-01-11 00:30:00,
2014-01-10 16:52:00,49.0,35.0,-100.00,WSW,240,6.0,15.0,59,0.00,,,0.00,30.000000,,2014-01-11 00:52:00,
2014-01-10 17:02:00,49.0,35.0,-100.00,WSW,240,6.0,15.0,59,0.00,,,0.00,30.000000,,2014-01-11 01:02:00,
2014-01-10 17:11:00,49.0,35.0,-100.00,WSW,240,6.0,15.0,59,0.00,,,0.00,30.000000,,2014-01-11 01:11:00,
2014-01-10 17:22:00,49.0,35.0,-100.00,WSW,240,6.0,15.0,59,0.00,,,0.00,30.000000,,2014-01-11 01:22:00,
2014-01-10 17:30:00,46.0,35.0,-100.00,WSW,249,6.0,8.0,65,0.00,,,0.00,0.000000,,2014-01-11 01:30:00,
2014-01-10 17:52:00,46.0,35.0,-100.00,WSW,249,6.0,8.0,65,0.00,,,0.00,0.000000,,2014-01-11 01:52:00,
2014-01-10 18:01:00,46.0,35.0,-100.00,WSW,249,6.0,8.0,65,0.00,,,0.00,0.000000,,2014-01-11 02:01:00,
2014-01-10 18:11:00,46.0,35.0,-100.00,WSW,249,6.0,8.0,65,0.00,,,0.00,0.000000,,2014-01-11 02:11:00,
2014-01-10 18:21:00,46.0,35.0,-100.00,WSW,249,6.0,8.0,65,0.00,,,0.00,0.000000,,2014-01-11 02:21:00,
2014-01-10 18:30:00,46.0,35.0,-100.00,WSW,249,5.0,8.0,66,0.00,,,0.00,0.000000,,2014-01-11 02:30:00,
2014-01-10 18:52:00,46.0,35.0,-100.00,WSW,249,5.0,8.0,66,0.00,,,0.00,0.000000,,2014-01-11 02:52:00,
2014-01-10 19:02:00,46.0,35.0,-100.00,WSW,249,5.0,8.0,66,0.00,,,0.00,0.000000,,2014-01-11 03:02:00,
2014-01-10 19:11:00,46.0,35.0,-100.00,WSW,249,5.0,8.0,66,0.00,,,0.00,0.000000,,2014-01-11 03:11:00,
2014-01-10 19:22:00,46.0,35.0,-100.00,WSW,249,5.0,8.0,66,0.00,,,0.00,0.000000,,2014-01-11 03:22:00,
2014-01-10 19:30:00,49.0,34.0,-100.00,SW,225,10.0,15.0,57,0.00,,,0.00,0.000000,,2014-01-11 03:30:00,
2014-01-10 19:54:00,49.0,34.0,-100.00,SW,225,10.0,15.0,57,0.00,,,0.00,0.000000,,2014-01-11 03:54:00,
2014-01-10 20:03:00,49.0,34.0,-100.00,SW,225,10.0,15.0,57,0.00,,,0.00,0.000000,,2014-01-11 04:03:00,
2014-01-10 20:13:00,49.0,34.0,-100.00,SW,225,10.0,15.0,57,0.00,,,0.00,0.000000,,2014-01-11 04:13:00,
2014-01-10 20:23:00,49.0,34.0,-100.00,SW,225,10.0,15.0,57,0.00,,,0.00,0.000000,,2014-01-11 04:23:00,
2014-01-10 20:30:00,49.0,34.0,-100.00,SSW,210,10.0,16.0,56,0.00,,,0.00,0.000000,,2014-01-11 04:30:00,
2014-01-10 20:53:00,49.0,34.0,-100.00,SSW,210,10.0,16.0,56,0.00,,,0.00,0.000000,,2014-01-11 04:53:00,
2014-01-10 21:03:00,49.0,34.0,-100.00,SSW,210,10.0,16.0,56,0.00,,,0.00,0.000000,,2014-01-11 05:03:00,
2014-01-10 21:12:00,49.0,34.0,-100.00,SSW,210,10.0,16.0,56,0.00,,,0.00,0.000000,,2014-01-11 05:12:00,
2014-01-10 21:22:00,49.0,34.0,-100.00,SSW,210,10.0,16.0,56,0.00,,,0.00,0.000000,,2014-01-11 05:22:00,
2014-01-10 21:30:00,50.0,34.0,-100.00,SSE,153,6.0,14.0,54,0.00,,,0.00,0.000000,,2014-01-11 05:30:00,
2014-01-10 21:53:00,50.0,34.0,-100.00,SSE,153,6.0,14.0,54,0.00,,,0.00,0.000000,,2014-01-11 05:53:00,
2014-01-10 22:02:00,50.0,34.0,-100.00,SSE,153,6.0,14.0,54,0.00,,,0.00,0.000000,,2014-01-11 06:02:00,
2014-01-10 22:12:00,50.0,34.0,-100.00,SSE,153,6.0,14.0,54,0.00,,,0.00,0.000000,,2014-01-11 06:12:00,
2014-01-10 22:22:00,50.0,34.0,-100.00,SSE,153,6.0,14.0,54,0.00,,,0.00,0.000000,,2014-01-11 06:22:00,
2014-01-10 22:30:00,51.0,35.0,-100.00,South,180,17.0,26.0,55,0.00,,,0.00,0.000000,,2014-01-11 06:30:00,
2014-01-10 22:52:00,51.0,35.0,-100.00,South,180,17.0,26.0,55,0.00,,,0.00,0.000000,,2014-01-11 06:52:00,
2014-01-10 23:02:00,51.0,35.0,-100.00,South,180,17.0,26.0,55,0.00,,,0.00,0.000000,,2014-01-11 07:02:00,
2014-01-10 23:11:00,51.0,35.0,-100.00,South,180,17.0,26.0,55,0.00,,,0.00,0.000000,,2014-01-11 07:11:00,
2014-01-10 23:22:00,51.0,35.0,-100.00,South,180,17.0,26.0,55,0.00,,,0.00,0.000000,,2014-01-11 07:22:00,
2014-01-10 23:30:00,51.0,37.0,-100.00,South,181,12.0,24.0,59,0.00,,,0.00,0.000000,,2014-01-11 07:30:00,
2014-01-10 23:52:00,51.0,37.0,-100.00,South,181,12.0,24.0,59,0.00,,,0.00,0.000000,,2014-01-11 07:52:00,